Time;durP1;ratioP1;P1;durP2;ratioP2;P2;SDS_P1;SDS_P2;PMS_P1;PMS_P2;Temp;Humidity;BMP_temperature;BMP_pressure;BME280_temperature;BME280_humidity;BME280_pressure;Samples;Min_cycle;Max_cycle;Signal;HPM_P1;HPM_P2
2023/01/13 00:01:42;;;;;;;31.23;9.25;;;;;;;-3.65;87.37;101142.97;1774687;81;21171;-67
2023/01/13 00:04:12;;;;;;;33.65;8.73;;;;;;;-3.64;87.41;101145.17;1774585;81;21151;-66
2023/01/13 00:06:42;;;;;;;27.95;9.45;;;;;;;-3.65;87.34;101144.78;1774376;81;21103;-66
2023/01/13 00:09:12;;;;;;;30.12;9.00;;;;;;;-3.68;87.35;101149.84;1774699;81;21088;-67
2023/01/13 00:11:43;;;;;;;28.40;8.80;;;;;;;-3.69;87.51;101154.81;1774728;79;21123;-66
2023/01/13 00:14:12;;;;;;;28.57;8.10;;;;;;;-3.71;87.54;101157.19;1774550;81;21143;-66
2023/01/13 00:16:43;;;;;;;31.85;8.93;;;;;;;-3.76;87.63;101153.91;1774678;81;21577;-66
2023/01/13 00:19:15;;;;;;;26.33;8.13;;;;;;;-3.77;87.79;101157.54;1764152;81;21087;-66
2023/01/13 00:21:44;;;;;;;28.77;8.15;;;;;;;-3.78;87.94;101157.16;1774794;81;21147;-67
2023/01/13 00:24:14;;;;;;;25.43;8.23;;;;;;;-3.75;88.10;101162.33;1774528;81;21150;-68
2023/01/13 00:26:43;;;;;;;28.92;9.35;;;;;;;-3.71;88.28;101161.20;1774479;81;21115;-68
2023/01/13 00:29:12;;;;;;;17.35;7.15;;;;;;;-3.74;88.33;101155.55;1774448;81;21155;-67
2023/01/13 00:31:42;;;;;;;23.70;7.72;;;;;;;-3.74;88.42;101152.88;1763555;81;21116;-66
2023/01/13 00:34:11;;;;;;;29.25;9.15;;;;;;;-3.76;88.43;101155.25;1774422;81;21159;-66
2023/01/13 00:36:41;;;;;;;32.58;9.03;;;;;;;-3.78;88.58;101162.51;1774683;80;21119;-65
2023/01/13 00:39:15;;;;;;;32.40;9.15;;;;;;;-3.78;88.74;101156.67;1774648;81;21163;-65
2023/01/13 00:44:38;;;;;;;24.57;8.85;;;;;;;-3.76;88.88;101156.59;1774915;79;21578;-66
2023/01/13 00:47:07;;;;;;;27.02;8.23;;;;;;;-3.78;89.00;101155.34;1774671;81;21550;-67
2023/01/13 00:49:37;;;;;;;29.25;8.58;;;;;;;-3.77;89.09;101146.36;1763852;81;21590;-65
2023/01/13 00:52:08;;;;;;;29.20;8.70;;;;;;;-3.75;89.19;101142.25;1774890;80;21143;-66
2023/01/13 00:54:37;;;;;;;28.90;8.60;;;;;;;-3.74;89.32;101148.86;1774389;80;21159;-65
2023/01/13 00:57:07;;;;;;;24.50;9.50;;;;;;;-3.72;89.38;101144.27;1774313;81;21112;-65
2023/01/13 00:59:37;;;;;;;31.48;9.48;;;;;;;-3.68;89.45;101144.96;1774961;81;21119;-67
2023/01/13 01:02:07;;;;;;;26.00;8.80;;;;;;;-3.66;89.56;101134.55;1774787;81;21119;-65
2023/01/13 01:04:38;;;;;;;27.93;9.93;;;;;;;-3.60;89.62;101129.31;1774760;81;21166;-67
2023/01/13 01:07:09;;;;;;;31.62;9.98;;;;;;;-3.61;89.56;101124.91;1774745;81;21111;-66
2023/01/13 01:09:38;;;;;;;34.58;10.63;;;;;;;-3.59;89.54;101124.34;1701942;84;21747;-66
2023/01/13 01:12:09;;;;;;;25.25;8.80;;;;;;;-3.58;89.58;101130.95;1701876;84;21617;-66
2023/01/13 01:14:40;;;;;;;33.80;10.23;;;;;;;-3.57;89.59;101129.99;1627880;88;21190;-65
2023/01/13 01:17:23;;;;;;;24.80;8.60;;;;;;;-3.58;89.60;101120.70;1702087;83;21119;-66
2023/01/13 01:19:52;;;;;;;29.45;9.78;;;;;;;-3.57;89.70;101120.62;1628075;88;21111;-65
2023/01/13 01:22:22;;;;;;;30.23;9.75;;;;;;;-3.55;89.76;101119.19;1701859;84;21187;-65
2023/01/13 01:24:53;;;;;;;33.90;9.33;;;;;;;-3.55;89.77;101121.39;1702106;84;21162;-65
2023/01/13 01:27:22;;;;;;;36.98;9.33;;;;;;;-3.55;89.83;101113.83;1705188;81;21555;-65
2023/01/13 01:29:51;;;;;;;31.12;9.23;;;;;;;-3.55;89.82;101118.71;1774780;81;21132;-65
2023/01/13 01:32:21;;;;;;;32.55;9.33;;;;;;;-3.55;89.78;101113.36;1774649;81;21123;-66
2023/01/13 01:34:51;;;;;;;32.93;9.78;;;;;;;-3.56;89.86;101114.31;1763797;81;21625;-66
2023/01/13 01:37:22;;;;;;;31.87;9.28;;;;;;;-3.55;89.88;101110.67;1701624;84;21127;-67
2023/01/13 01:39:52;;;;;;;30.80;8.98;;;;;;;-3.52;90.00;101110.97;1701969;84;21143;-65
2023/01/13 01:45:22;;;;;;;34.25;9.80;;;;;;;-3.48;90.08;101099.13;1654750;86;21175;-66
2023/01/13 01:47:56;;;;;;;33.67;9.00;;;;;;;-3.43;90.19;101093.49;1702325;84;21268;-66
2023/01/13 01:50:26;;;;;;;24.57;9.43;;;;;;;-3.42;90.14;101096.08;1678756;84;21187;-66
2023/01/13 01:53:08;;;;;;;31.93;10.13;;;;;;;-3.41;90.10;101096.47;1701860;84;21566;-66
2023/01/13 01:55:38;;;;;;;33.28;9.78;;;;;;;-3.42;90.06;101096.55;1670654;84;21127;-66
2023/01/13 01:58:21;;;;;;;31.75;9.28;;;;;;;-3.42;90.05;101100.58;1763294;80;21127;-66
2023/01/13 02:00:50;;;;;;;26.30;8.68;;;;;;;-3.45;90.07;101098.94;1739280;81;21525;-66
2023/01/13 02:03:19;;;;;;;32.08;9.70;;;;;;;-3.45;90.07;101098.08;1783119;80;21131;-72
2023/01/13 02:05:48;;;;;;;34.75;8.50;;;;;;;-3.46;90.30;101095.88;1782740;80;21134;-66
2023/01/13 02:08:19;;;;;;;30.77;9.15;;;;;;;-3.45;90.12;101091.38;1782974;80;21143;-66
2023/01/13 02:10:53;;;;;;;35.35;9.50;;;;;;;-3.45;90.14;101090.05;1782669;80;21115;-69
2023/01/13 02:13:22;;;;;;;30.20;8.83;;;;;;;-3.44;90.15;101088.61;1782907;80;21538;-67
2023/01/13 02:16:09;;;;;;;36.08;9.50;;;;;;;-3.47;90.08;101093.29;1782967;80;21593;-67
2023/01/13 02:19:02;;;;;;;30.50;9.85;;;;;;;-3.51;90.10;101090.80;1782743;79;21182;-66
2023/01/13 02:22:03;;;;;;;28.30;8.50;;;;;;;-3.51;90.20;101086.77;1782703;80;21142;-67
2023/01/13 02:25:18;;;;;;;22.75;8.70;;;;;;;-3.50;90.16;101090.31;1782739;79;21182;-65
2023/01/13 02:28:20;;;;;;;26.42;9.60;;;;;;;-3.48;90.21;101092.91;1735561;82;21172;-65
2023/01/13 02:34:15;;;;;;;34.05;9.33;;;;;;;-3.43;90.20;101082.30;1782841;80;21598;-66
2023/01/13 02:36:57;;;;;;;28.90;8.90;;;;;;;-3.41;90.15;101087.56;1782905;80;21111;-66
2023/01/13 02:39:51;;;;;;;25.35;8.68;;;;;;;-3.41;90.11;101078.19;1782766;80;21134;-67
2023/01/13 02:45:39;;;;;;;27.85;9.20;;;;;;;-3.40;89.85;101073.22;1782924;80;21146;-66
2023/01/13 02:48:09;;;;;;;26.25;8.70;;;;;;;-3.39;89.86;101065.56;1782930;80;21511;-67
2023/01/13 02:50:52;;;;;;;32.38;9.23;;;;;;;-3.38;89.79;101067.28;1782719;80;21119;-66
2023/01/13 02:53:36;;;;;;;38.83;9.68;;;;;;;-3.37;89.73;101067.67;1782598;80;21531;-66
2023/01/13 02:56:06;;;;;;;26.55;9.53;;;;;;;-3.35;89.67;101064.42;1782802;80;21131;-66
2023/01/13 02:58:37;;;;;;;31.42;9.20;;;;;;;-3.36;89.50;101056.87;1775202;80;21103;-65
2023/01/13 03:01:06;;;;;;;30.45;9.55;;;;;;;-3.37;89.37;101062.31;1774500;81;21115;-66
2023/01/13 03:03:35;;;;;;;27.93;8.98;;;;;;;-3.38;89.35;101061.93;1774508;81;21182;-67
2023/01/13 03:06:36;;;;;;;26.73;8.68;;;;;;;-3.37;89.33;101063.18;1774606;81;21129;-67
2023/01/13 03:09:20;;;;;;;31.02;9.48;;;;;;;-3.34;89.30;101067.48;1774643;81;21247;-65
2023/01/13 03:12:19;;;;;;;22.40;8.63;;;;;;;-3.34;89.23;101061.66;1774550;81;21555;-66
2023/01/13 03:15:09;;;;;;;32.42;9.50;;;;;;;-3.33;89.18;101062.52;1774656;80;21159;-65
2023/01/13 03:17:56;;;;;;;26.30;9.73;;;;;;;-3.34;89.14;101059.45;1753095;79;21179;-66
2023/01/13 03:20:30;;;;;;;30.65;10.85;;;;;;;-3.31;89.23;101063.28;1735915;82;21166;-66
2023/01/13 03:23:17;;;;;;;28.95;9.85;;;;;;;-3.29;89.15;101055.53;1774777;81;21104;-66
2023/01/13 03:25:57;;;;;;;29.60;9.45;;;;;;;-3.28;89.08;101059.08;1774467;81;21136;-64
2023/01/13 03:28:31;;;;;;;32.63;11.20;;;;;;;-3.30;89.04;101056.49;1774406;79;21547;-65
2023/01/13 03:31:09;;;;;;;28.87;10.28;;;;;;;-3.26;89.08;101061.19;1774770;80;21187;-67
2023/01/13 03:33:55;;;;;;;31.87;9.68;;;;;;;-3.27;89.01;101056.30;1774445;81;21179;-66
2023/01/13 03:36:27;;;;;;;26.45;9.18;;;;;;;-3.26;88.96;101059.84;1774492;79;21132;-65
2023/01/13 03:39:03;;;;;;;25.97;9.63;;;;;;;-3.28;88.83;101053.72;1774538;81;21146;-66
2023/01/13 03:41:42;;;;;;;23.75;9.50;;;;;;;-3.30;88.83;101059.17;1774445;81;21135;-65
2023/01/13 03:44:21;;;;;;;28.60;9.58;;;;;;;-3.29;88.78;101056.02;1774558;80;21158;-65
2023/01/13 03:47:21;;;;;;;24.92;8.70;;;;;;;-3.32;88.75;101058.41;1774439;80;21084;-66
2023/01/13 03:50:00;;;;;;;24.20;9.25;;;;;;;-3.32;88.67;101050.84;1774576;81;21657;-66
2023/01/13 03:52:48;;;;;;;23.35;8.68;;;;;;;-3.35;88.68;101047.88;1774598;81;21539;-66
2023/01/13 03:55:27;;;;;;;30.10;10.68;;;;;;;-3.34;88.67;101050.08;1751663;80;21559;-66
2023/01/13 03:58:09;;;;;;;29.87;10.30;;;;;;;-3.36;88.53;101056.87;1781479;80;21107;-66
2023/01/13 04:00:56;;;;;;;32.83;9.18;;;;;;;-3.36;88.51;101056.00;1771223;80;21107;-65
2023/01/13 04:03:40;;;;;;;23.65;10.08;;;;;;;-3.34;88.58;101060.31;1788219;80;21103;-66
2023/01/13 04:06:24;;;;;;;34.92;10.60;;;;;;;-3.34;88.47;101054.09;1788220;80;21166;-66
2023/01/13 04:08:59;;;;;;;33.58;10.60;;;;;;;-3.36;88.42;101054.66;1731083;80;21139;-67
2023/01/13 04:11:35;;;;;;;28.52;10.10;;;;;;;-3.35;88.50;101051.89;1788335;79;21119;-66
2023/01/13 04:14:04;;;;;;;29.63;10.70;;;;;;;-3.33;88.53;101058.02;1788514;79;21142;-66
2023/01/13 04:16:35;;;;;;;33.18;11.83;;;;;;;-3.30;88.50;101055.62;1736630;80;21177;-66
2023/01/13 04:19:08;;;;;;;27.98;11.20;;;;;;;-3.30;88.37;101052.95;1771356;80;21130;-65
2023/01/13 04:21:37;;;;;;;29.35;10.23;;;;;;;-3.29;88.40;101053.34;1788487;80;21150;-65
2023/01/13 04:24:08;;;;;;;39.08;12.10;;;;;;;-3.30;88.28;101055.62;1788590;80;21118;-67
2023/01/13 04:26:38;;;;;;;31.00;10.32;;;;;;;-3.31;88.22;101054.77;1788484;79;21170;-66
2023/01/13 04:29:08;;;;;;;29.30;10.25;;;;;;;-3.32;88.21;101056.20;1788359;80;21135;-65
2023/01/13 04:31:37;;;;;;;30.37;10.55;;;;;;;-3.31;88.24;101053.91;1788579;80;21166;-65
2023/01/13 04:34:06;;;;;;;29.00;10.95;;;;;;;-3.30;88.27;101059.65;1788545;80;21146;-65
2023/01/13 04:36:36;;;;;;;25.55;10.40;;;;;;;-3.27;88.37;101061.66;1788349;80;21118;-64
2023/01/13 04:39:05;;;;;;;26.50;11.05;;;;;;;-3.24;88.29;101061.52;1788355;79;21178;-65
2023/01/13 04:44:23;;;;;;;30.72;11.55;;;;;;;-3.21;88.20;101061.80;1788421;80;21091;-66
2023/01/13 04:46:53;;;;;;;30.77;12.53;;;;;;;-3.19;88.20;101066.59;1788505;80;21519;-66
2023/01/13 04:49:22;;;;;;;27.50;11.12;;;;;;;-3.17;88.19;101062.00;1788264;79;21117;-66
2023/01/13 04:51:52;;;;;;;24.02;10.03;;;;;;;-3.16;88.12;101066.40;1770910;80;21103;-66
2023/01/13 04:54:22;;;;;;;29.37;11.28;;;;;;;-3.16;88.06;101061.04;1788318;80;21139;-66
2023/01/13 04:56:51;;;;;;;26.40;10.72;;;;;;;-3.15;88.08;101056.06;1788280;80;21146;-67
2023/01/13 04:59:22;;;;;;;31.70;11.90;;;;;;;-3.12;88.04;101061.23;1775176;80;21151;-67
2023/01/13 05:01:52;;;;;;;26.27;10.80;;;;;;;-3.12;88.01;101057.22;1774672;81;21115;-65
2023/01/13 05:04:23;;;;;;;28.98;10.23;;;;;;;-3.10;88.00;101067.36;1774546;81;21134;-67
2023/01/13 05:06:53;;;;;;;28.17;11.38;;;;;;;-3.09;87.91;101064.20;1774834;81;21123;-67
2023/01/13 05:09:22;;;;;;;28.47;10.75;;;;;;;-3.10;87.89;101062.00;1763910;81;21163;-66
2023/01/13 05:17:30;;;;;;;29.48;11.40;;;;;;;-3.05;87.85;101075.98;1692857;84;21157;-65
2023/01/13 05:19:59;;;;;;;29.27;10.55;;;;;;;-3.06;87.77;101078.28;1668546;85;21142;-66
2023/01/13 05:25:24;;;;;;;30.55;11.38;;;;;;;-3.04;87.70;101076.84;1774466;81;21573;-65
2023/01/13 05:27:58;;;;;;;31.80;10.82;;;;;;;-3.05;87.60;101075.98;1774718;80;21108;-66
2023/01/13 05:30:32;;;;;;;28.70;11.60;;;;;;;-3.07;87.60;101077.03;1774670;81;21108;-67
2023/01/13 05:33:01;;;;;;;38.78;11.88;;;;;;;-3.07;87.55;101077.03;1774550;80;21555;-66
2023/01/13 05:35:30;;;;;;;29.10;11.18;;;;;;;-3.08;87.58;101068.13;1774895;81;21518;-67
2023/01/13 05:37:59;;;;;;;28.15;11.38;;;;;;;-3.08;87.57;101072.16;1774564;81;21139;-67
2023/01/13 07:27:22;;;;;;;44.42;13.08;;;;;;;-3.29;90.70;101100.22;1829927;77;25229;-66
2023/01/13 07:29:52;;;;;;;39.53;14.00;;;;;;;-3.33;90.64;101105.38;1724106;82;21090;-66
2023/01/13 07:32:25;;;;;;;36.53;14.15;;;;;;;-3.30;90.63;101107.40;1740243;82;21115;-66
2023/01/13 07:34:57;;;;;;;32.85;12.80;;;;;;;-3.26;90.58;101105.40;1724404;83;21188;-64
2023/01/13 07:37:28;;;;;;;29.18;11.78;;;;;;;-3.16;90.52;101095.02;1740000;82;21107;-66
2023/01/13 07:39:58;;;;;;;36.25;13.05;;;;;;;-3.16;90.52;101095.02;1724387;83;21150;-67
2023/01/13 07:45:18;;;;;;;30.35;13.20;;;;;;;-3.02;90.61;101100.40;1724050;83;21174;-67
2023/01/13 07:47:51;;;;;;;40.00;16.15;;;;;;;-2.94;90.38;101101.66;1740075;82;21100;-66
2023/01/13 07:50:22;;;;;;;28.35;12.07;;;;;;;-2.88;90.28;101097.73;1724198;83;21509;-66
2023/01/13 07:52:53;;;;;;;40.28;12.85;;;;;;;-2.82;90.17;101107.22;1713672;82;21103;-66
2023/01/13 07:55:23;;;;;;;30.15;12.13;;;;;;;-2.78;90.09;101107.41;1634837;83;21169;-67
2023/01/13 07:57:53;;;;;;;34.88;13.50;;;;;;;-2.73;89.94;101099.94;1740242;82;21171;-67
2023/01/13 08:00:25;;;;;;;33.10;13.08;;;;;;;-2.71;89.76;101106.92;1724240;82;21137;-66
2023/01/13 08:02:58;;;;;;;31.15;13.28;;;;;;;-2.68;89.70;101105.39;1740201;82;21123;-69
2023/01/13 08:05:29;;;;;;;33.75;12.75;;;;;;;-2.64;89.58;101106.06;1724491;82;21760;-67
2023/01/13 08:08:00;;;;;;;33.53;13.38;;;;;;;-2.63;89.36;101112.67;1740173;82;21190;-66
2023/01/13 08:10:30;;;;;;;32.55;12.85;;;;;;;-2.64;89.22;101104.24;1674092;83;21146;-70
2023/01/13 08:13:18;;;;;;;33.15;13.00;;;;;;;-2.61;89.21;101105.39;1740021;82;21152;-67
2023/01/13 08:15:52;;;;;;;32.58;12.73;;;;;;;-2.57;89.07;101098.05;1724104;83;21553;-67
2023/01/13 08:18:22;;;;;;;37.88;14.95;;;;;;;-2.59;88.72;101095.46;1739727;82;21182;-68
2023/01/13 08:20:52;;;;;;;38.15;14.45;;;;;;;-2.60;88.71;101088.37;1724175;83;21162;-66
2023/01/13 08:23:22;;;;;;;44.83;13.58;;;;;;;-2.56;88.71;101085.88;1740291;82;21555;-64
2023/01/13 08:25:51;;;;;;;37.20;15.23;;;;;;;-2.54;88.67;101089.80;1722261;83;21118;-68
2023/01/13 08:28:23;;;;;;;34.38;12.88;;;;;;;-2.52;88.58;101090.56;1783394;80;21135;-67
2023/01/13 08:30:54;;;;;;;29.52;11.88;;;;;;;-2.50;88.48;101091.81;1729246;83;21162;-68
2023/01/13 08:33:24;;;;;;;25.08;11.88;;;;;;;-2.49;88.30;101086.35;1729203;83;21595;-67
2023/01/13 08:35:55;;;;;;;29.23;11.97;;;;;;;-2.49;88.18;101085.48;1729293;83;21649;-67
2023/01/13 08:38:28;;;;;;;28.60;12.70;;;;;;;-2.49;88.08;101086.83;1728865;83;21583;-65
2023/01/13 08:44:19;;;;;;;34.40;12.93;;;;;;;-2.43;88.09;101077.05;1640717;87;21169;-66
2023/01/13 08:46:51;;;;;;;34.85;13.95;;;;;;;-2.41;87.99;101073.78;1667966;85;21137;-67
2023/01/13 08:49:23;;;;;;;29.42;12.58;;;;;;;-2.40;87.89;101075.51;1703674;83;21170;-66
2023/01/13 08:51:52;;;;;;;31.62;13.18;;;;;;;-2.38;87.82;101083.84;1725689;83;21301;-67
2023/01/13 08:54:23;;;;;;;30.82;12.93;;;;;;;-2.36;87.77;101087.28;1725915;83;21601;-67
2023/01/13 08:59:49;;;;;;;38.15;14.93;;;;;;;-2.35;87.64;101080.09;1637103;86;21601;-62
2023/01/13 09:02:19;;;;;;;35.65;13.78;;;;;;;-2.31;87.73;101073.58;1638271;87;21209;-65
2023/01/13 09:04:48;;;;;;;32.30;13.50;;;;;;;-2.28;87.72;101070.21;1638428;87;21210;-65
2023/01/13 09:07:18;;;;;;;30.48;12.95;;;;;;;-2.20;87.99;101063.48;1638343;87;21660;-67
2023/01/13 09:09:50;;;;;;;35.43;14.00;;;;;;;-2.17;87.84;101064.63;1638255;87;21170;-67
2023/01/13 09:15:12;;;;;;;35.30;12.35;;;;;;;-2.16;87.43;101061.84;1541072;92;20247;-66
2023/01/13 09:20:20;;;;;;;36.63;14.38;;;;;;;-2.17;87.47;101060.59;1528590;94;21210;-66
2023/01/13 09:22:52;;;;;;;31.40;12.50;;;;;;;-2.14;87.50;101061.73;1528743;94;21561;-67
2023/01/13 09:25:22;;;;;;;31.40;13.48;;;;;;;-2.12;87.39;101058.47;1528709;92;21154;-68
2023/01/13 09:27:51;;;;;;;33.70;13.70;;;;;;;-2.12;87.15;101054.45;1504978;94;21335;-68
2023/01/13 09:30:23;;;;;;;29.65;12.53;;;;;;;-2.12;87.10;101055.31;1481557;95;21251;-67
2023/01/13 09:34:58;;;;;;;31.02;13.05;;;;;;;-2.10;86.89;101056.55;1481602;97;21180;-67
2023/01/13 09:35:28;;;;;;;31.75;13.22;;;;;;;-2.09;86.81;101055.59;1462076;97;21370;-67
2023/01/13 09:37:58;;;;;;;41.63;15.60;;;;;;;-2.10;86.72;101054.73;1481528;95;21260;-67
2023/01/13 09:40:30;;;;;;;32.10;12.55;;;;;;;-2.09;86.69;101059.61;1481675;95;21225;-66
2023/01/13 09:46:46;;;;;;;42.25;15.08;;;;;;;-1.72;88.80;101059.41;1538181;90;21273;-66
2023/01/13 09:49:31;;;;;;;35.50;14.47;;;;;;;-1.76;87.66;101046.66;1622834;87;21197;-67
2023/01/13 09:52:23;;;;;;;49.65;19.12;;;;;;;-1.84;87.14;101045.45;1630981;88;21158;-66
2023/01/13 09:55:12;;;;;;;28.02;13.00;;;;;;;-1.85;87.13;101046.42;1631279;88;21158;-67
2023/01/13 09:57:44;;;;;;;41.83;17.80;;;;;;;-1.85;86.87;101039.22;1621226;88;21220;-66
2023/01/13 10:00:21;;;;;;;36.65;15.53;;;;;;;-1.87;86.60;101042.97;1572604;91;21151;-67
2023/01/13 10:03:05;;;;;;;35.17;13.88;;;;;;;-1.90;86.52;101041.35;1583086;90;21180;-66
2023/01/13 10:05:55;;;;;;;31.27;14.05;;;;;;;-1.91;86.51;101042.31;1593425;90;21575;-66
2023/01/13 10:08:36;;;;;;;31.65;12.90;;;;;;;-1.89;86.49;101036.84;1615528;88;21202;-65
2023/01/13 10:14:44;;;;;;;42.27;20.23;;;;;;;-1.96;86.03;101021.11;1615834;88;21151;-67
2023/01/13 10:17:42;;;;;;;31.90;14.13;;;;;;;-1.98;86.07;101023.52;1619275;88;21202;-66
2023/01/13 10:20:31;;;;;;;31.48;12.45;;;;;;;-2.01;85.94;101017.02;1609917;88;21234;-66
2023/01/13 10:23:37;;;;;;;32.90;12.93;;;;;;;-2.05;85.99;101024.41;1597743;90;21200;-67
2023/01/13 10:26:27;;;;;;;28.52;13.03;;;;;;;-2.06;85.99;101024.51;1622343;88;21167;-64
2023/01/13 16:04:22;;;;;;;45.52;16.15;;;;;;;-2.14;87.89;100978.52;1829966;77;24598;-62
2023/01/13 16:06:51;;;;;;;40.23;16.20;;;;;;;-2.17;88.05;100976.05;1788455;80;21648;-69
2023/01/13 16:09:21;;;;;;;43.70;16.23;;;;;;;-2.13;88.02;100989.64;1788526;80;21107;-65
2023/01/13 16:11:51;;;;;;;39.55;14.75;;;;;;;-2.13;87.92;100984.27;1788694;80;21170;-65
2023/01/13 16:14:20;;;;;;;34.08;14.78;;;;;;;-2.11;87.90;100978.31;1788575;80;21107;-65
2023/01/13 16:17:09;;;;;;;36.75;15.28;;;;;;;-2.09;87.84;100979.08;1762782;78;21088;31
2023/01/13 16:19:41;;;;;;;35.00;13.40;;;;;;;-2.08;87.82;100977.62;1727929;82;21231;-61
2023/01/13 16:22:11;;;;;;;33.80;13.80;;;;;;;-2.08;87.74;100969.58;1727556;83;21565;-61
2023/01/13 16:24:43;;;;;;;34.30;13.98;;;;;;;-2.07;87.76;100965.06;1683127;85;21140;-62
2023/01/13 16:27:19;;;;;;;34.23;13.48;;;;;;;-2.06;87.76;100977.05;1714595;83;21129;-60
2023/01/13 16:29:48;;;;;;;28.83;12.37;;;;;;;-2.05;87.69;100977.91;1714484;83;21113;-61
2023/01/13 16:32:19;;;;;;;28.30;12.45;;;;;;;-2.04;87.65;100979.63;1714403;84;21101;-60
2023/01/13 16:34:49;;;;;;;26.37;13.68;;;;;;;-2.03;87.57;100983.55;1714500;84;21602;-62
2023/01/13 16:37:23;;;;;;;27.95;11.93;;;;;;;-2.02;87.53;100977.70;1680251;84;21163;-62
2023/01/13 16:39:53;;;;;;;25.70;12.15;;;;;;;-1.99;87.51;100982.86;1714466;83;21545;-61
2023/01/13 16:42:22;;;;;;;28.42;11.83;;;;;;;-1.99;87.52;100970.78;1679913;84;21113;-61
2023/01/13 16:44:52;;;;;;;31.35;13.35;;;;;;;-1.97;87.51;100968.85;1714318;82;21140;-59
2023/01/13 16:47:22;;;;;;;30.05;12.55;;;;;;;-1.96;87.42;100965.20;1679966;85;21191;-61
2023/01/13 16:49:52;;;;;;;27.90;12.63;;;;;;;-1.96;87.33;100971.44;1714529;83;21113;-60
2023/01/13 16:52:22;;;;;;;29.90;12.07;;;;;;;-1.96;87.38;100975.46;1679909;84;21124;-63
2023/01/13 16:54:51;;;;;;;31.37;12.75;;;;;;;-1.97;87.24;100972.87;1714497;82;21188;-60
2023/01/13 16:57:28;;;;;;;29.30;12.93;;;;;;;-1.99;87.26;100973.47;1680257;84;21192;-63
2023/01/13 16:59:58;;;;;;;31.65;13.22;;;;;;;-1.98;87.33;100976.05;1704011;84;21155;-62
2023/01/13 17:02:28;;;;;;;27.87;11.75;;;;;;;-1.96;87.37;100977.28;1703719;84;21146;-62
2023/01/13 17:04:58;;;;;;;32.53;12.50;;;;;;;-1.96;87.31;100977.28;1703784;83;21130;-62
2023/01/13 17:07:28;;;;;;;33.73;13.20;;;;;;;-1.98;87.29;100980.08;1703789;84;21564;-61
2023/01/13 17:09:57;;;;;;;30.23;13.03;;;;;;;-1.98;87.36;100984.10;1695080;83;21206;-62
2023/01/13 17:12:26;;;;;;;25.40;11.68;;;;;;;-1.96;87.43;100986.69;1703952;84;21104;-62
2023/01/13 17:14:57;;;;;;;27.77;11.78;;;;;;;-1.94;87.46;100987.47;1703338;84;21620;-61
2023/01/13 17:17:27;;;;;;;28.05;12.35;;;;;;;-1.95;87.42;100983.06;1703281;84;21111;-61
2023/01/13 17:19:56;;;;;;;25.72;11.08;;;;;;;-1.96;87.42;100987.55;1683884;84;21178;-62
2023/01/13 17:22:27;;;;;;;23.07;10.35;;;;;;;-1.93;87.52;100986.03;1671498;84;21131;-61
2023/01/13 17:24:56;;;;;;;28.25;12.05;;;;;;;-1.90;87.56;100990.33;1703505;83;21174;-62
2023/01/13 17:27:25;;;;;;;28.10;11.95;;;;;;;-1.91;87.52;100979.20;1703311;84;21109;-61
2023/01/13 17:29:57;;;;;;;29.87;11.70;;;;;;;-1.90;87.47;100974.70;1694517;84;21163;-61
2023/01/13 17:32:25;;;;;;;29.10;11.80;;;;;;;-1.94;87.50;100980.28;1703299;83;21151;-61
2023/01/13 17:34:56;;;;;;;27.37;11.90;;;;;;;-1.94;87.57;100978.08;1703574;84;21598;-62
2023/01/13 17:37:26;;;;;;;30.32;12.73;;;;;;;-1.95;87.60;100974.53;1703399;83;21131;-60
2023/01/13 17:39:56;;;;;;;28.35;11.85;;;;;;;-1.96;87.69;100988.89;1703268;84;21170;-62
2023/01/13 17:42:27;;;;;;;33.42;13.35;;;;;;;-1.94;87.76;100990.16;1703200;84;21139;-61
2023/01/13 17:44:56;;;;;;;31.85;13.13;;;;;;;-1.95;87.76;100981.24;1703402;84;21641;-61
2023/01/13 17:47:27;;;;;;;31.00;13.20;;;;;;;-1.95;87.82;100987.09;1703540;83;21589;-61
2023/01/13 17:49:56;;;;;;;27.65;12.68;;;;;;;-1.93;87.89;100982.48;1703221;84;21627;-62
2023/01/13 17:52:25;;;;;;;26.42;12.50;;;;;;;-1.92;88.01;100974.80;1703234;83;21147;-61
2023/01/13 17:54:54;;;;;;;30.43;12.30;;;;;;;-1.91;88.01;100979.20;1703620;83;21607;-63
2023/01/13 17:57:24;;;;;;;31.87;13.30;;;;;;;-1.90;87.95;100974.70;1703257;84;21599;-63
2023/01/13 17:59:53;;;;;;;34.00;13.72;;;;;;;-1.90;88.00;100966.64;1703412;84;21143;-62
2023/01/13 18:02:23;;;;;;;32.05;13.40;;;;;;;-1.88;88.05;100970.09;1703167;84;21237;-62
2023/01/13 18:04:54;;;;;;;31.90;13.50;;;;;;;-1.88;88.08;100973.63;1694618;83;21651;-62
2023/01/13 18:07:23;;;;;;;28.55;12.18;;;;;;;-1.87;88.09;100973.15;1703189;84;21190;-61
2023/01/13 18:09:53;;;;;;;29.67;12.63;;;;;;;-1.89;88.11;100971.91;1703463;84;21150;-62
2023/01/13 18:12:23;;;;;;;27.00;11.88;;;;;;;-1.90;88.13;100961.27;1703443;83;21194;-61
2023/01/13 18:14:52;;;;;;;24.50;10.63;;;;;;;-1.89;88.18;100958.48;1703338;84;21553;-63
2023/01/13 18:17:22;;;;;;;27.25;11.63;;;;;;;-1.91;88.19;100956.38;1703362;84;21162;-61
2023/01/13 18:28:19;;;;;;;35.10;14.50;;;;;;;-1.95;88.28;100950.36;1737088;82;21113;-61
2023/01/13 18:30:50;;;;;;;27.15;12.20;;;;;;;-1.94;88.34;100947.20;1737043;82;21128;-62
2023/01/13 18:33:20;;;;;;;29.32;12.65;;;;;;;-1.95;88.30;100949.02;1737006;82;21140;-62
2023/01/13 18:35:49;;;;;;;31.37;13.25;;;;;;;-1.96;88.29;100949.09;1736850;82;21590;-62
2023/01/13 18:38:27;;;;;;;28.05;12.30;;;;;;;-1.94;88.33;100940.00;1737166;82;21101;-61
2023/01/13 18:42:49;;;;;;;29.10;12.73;;;;;;;-1.94;88.35;100938.66;1693354;83;21194;-61
2023/01/13 18:43:32;;;;;;;30.97;12.53;;;;;;;-1.93;88.26;100943.55;1737594;82;21552;-62
2023/01/13 18:46:02;;;;;;;32.98;12.68;;;;;;;-1.94;88.25;100940.48;1785543;80;21546;-61
2023/01/13 18:48:33;;;;;;;29.27;12.93;;;;;;;-1.96;88.15;100941.89;1814247;79;21147;-61
2023/01/13 18:51:02;;;;;;;27.98;12.73;;;;;;;-1.97;88.20;100942.86;1814417;79;21098;-60
2023/01/13 18:53:35;;;;;;;30.37;12.25;;;;;;;-1.99;88.11;100946.13;1785531;80;21137;-61
2023/01/13 18:56:12;;;;;;;28.23;11.93;;;;;;;-2.00;88.11;100950.27;1743138;82;21177;-60
2023/01/13 18:58:50;;;;;;;26.02;12.15;;;;;;;-2.02;88.03;100945.48;1726817;83;21236;-64
2023/01/13 19:01:15;;;;;;;24.47;11.68;;;;;;;-2.05;87.91;100954.61;1726762;83;21098;-62
2023/01/13 19:03:49;;;;;;;26.80;11.28;;;;;;;-2.04;87.92;100944.72;1727099;83;21138;-62
2023/01/13 19:06:20;;;;;;;21.60;10.58;;;;;;;-2.06;87.83;100943.48;1727001;83;21926;-61
2023/01/13 19:08:52;;;;;;;24.32;11.00;;;;;;;-2.06;87.71;100955.56;1726781;83;21161;-61
2023/01/13 19:11:21;;;;;;;22.87;10.90;;;;;;;-2.08;87.48;100951.27;1726814;82;21142;-62
2023/01/13 19:13:51;;;;;;;22.70;10.58;;;;;;;-2.10;87.42;100954.53;1747328;80;21142;-62
2023/01/13 19:16:21;;;;;;;29.87;11.68;;;;;;;-2.09;87.42;100961.14;1785918;80;22117;-62
2023/01/13 19:18:52;;;;;;;24.27;11.33;;;;;;;-2.07;87.28;100965.93;1781849;80;21553;-60
2023/01/13 19:21:22;;;;;;;24.98;11.60;;;;;;;-2.08;87.21;100972.74;1773970;81;21729;-61
2023/01/13 19:23:55;;;;;;;26.57;11.57;;;;;;;-2.10;87.16;100964.80;1773957;80;21609;-60
2023/01/13 19:26:25;;;;;;;23.92;11.15;;;;;;;-2.08;87.17;100967.38;1774087;80;21584;-61
2023/01/13 19:28:55;;;;;;;30.02;12.45;;;;;;;-2.07;87.08;100975.32;1774145;80;21142;-61
2023/01/13 19:31:24;;;;;;;24.95;11.78;;;;;;;-2.07;87.07;100965.06;1774094;81;21130;-61
2023/01/13 19:33:54;;;;;;;24.30;11.57;;;;;;;-2.06;87.01;100972.16;1774050;80;21151;-63
2023/01/13 19:36:25;;;;;;;26.52;12.82;;;;;;;-2.07;86.94;100965.93;1774099;80;21138;-60
2023/01/13 19:38:55;;;;;;;21.70;10.88;;;;;;;-2.07;86.87;100973.98;1804802;78;21130;-62
2023/01/13 19:47:05;;;;;;;26.57;11.60;;;;;;;-2.12;86.64;100972.09;1773989;81;21150;-59
2023/01/13 19:49:34;;;;;;;26.80;12.35;;;;;;;-2.13;86.62;100972.19;1773827;80;21138;-60
2023/01/13 19:52:04;;;;;;;27.25;12.55;;;;;;;-2.13;86.58;100974.88;1774109;80;21170;-61
2023/01/13 19:54:34;;;;;;;29.55;13.13;;;;;;;-2.12;86.69;100964.52;1774022;81;21615;-63
2023/01/13 19:57:03;;;;;;;28.00;12.68;;;;;;;-2.09;86.74;100965.17;1774037;81;21134;-61
2023/01/13 19:59:34;;;;;;;22.80;11.08;;;;;;;-2.06;86.69;100960.94;1773921;80;21527;-61
2023/01/13 20:02:03;;;;;;;23.38;10.80;;;;;;;-2.05;86.66;100963.14;1773929;80;21549;-61